Terminal Aerodrome Forecast
Issued by NWS Boston, MA

Home | Current Version | Previous Version | Text Only | Print | Product List | Glossary On
Versions: 1 2 3 4 5 6 7 8 9 10 11 12 13 14 15 16 17 18 19 20 21 22 23 24 25 26 27 28 29 30 31 32 33 34 35 36 37 38 39 40 41 42 43 44 45 46
000
FTUS41 KBOX 262346
TAFBOS
TAF
KBOS 262346Z 2700/2806 VRB03KT 2SM -RA BR OVC007 WS020/22045KT
     FM270200 28009KT 3SM -SHRA BR OVC008
     FM270300 30008KT 3SM BR OVC008
     FM270500 31008KT 3SM -SHRA BR OVC008
     FM271300 35007KT P6SM OVC020
     FM271700 01005KT P6SM OVC025
     FM272200 01004KT P6SM BKN030=

USA.gov is the U.S. government's official web portal to all federal, state and local government web resources and services.